sensor_id;sensor_type;location;lat;lon;timestamp;P1;P2;P0
27143;PMS1003;14672;50.250;8.312;2023-03-14T00:00:01;9.00;9.00;3.00
27143;PMS1003;14672;50.250;8.312;2023-03-14T00:02:33;10.50;9.50;3.00
27143;PMS1003;14672;50.250;8.312;2023-03-14T00:05:00;8.00;8.00;5.00
27143;PMS1003;14672;50.250;8.312;2023-03-14T00:07:31;8.50;8.50;3.00
27143;PMS1003;14672;50.250;8.312;2023-03-14T00:10:00;11.00;10.00;3.00
27143;PMS1003;14672;50.250;8.312;2023-03-14T00:12:31;11.25;11.00;4.00
27143;PMS1003;14672;50.250;8.312;2023-03-14T00:14:57;8.50;7.25;3.00
27143;PMS1003;14672;50.250;8.312;2023-03-14T00:17:25;10.25;8.50;3.00
27143;PMS1003;14672;50.250;8.312;2023-03-14T00:19:52;11.75;11.00;3.00
27143;PMS1003;14672;50.250;8.312;2023-03-14T00:22:19;10.75;10.00;3.00
27143;PMS1003;14672;50.250;8.312;2023-03-14T00:24:46;9.00;9.00;3.00
27143;PMS1003;14672;50.250;8.312;2023-03-14T00:27:12;9.50;9.50;3.00
27143;PMS1003;14672;50.250;8.312;2023-03-14T00:29:38;8.50;8.00;3.00
27143;PMS1003;14672;50.250;8.312;2023-03-14T00:32:04;8.00;6.33;1.67
27143;PMS1003;14672;50.250;8.312;2023-03-14T00:34:30;9.00;9.00;3.00
27143;PMS1003;14672;50.250;8.312;2023-03-14T00:36:57;8.50;8.50;3.00
27143;PMS1003;14672;50.250;8.312;2023-03-14T00:39:23;12.50;12.50;3.00
27143;PMS1003;14672;50.250;8.312;2023-03-14T00:41:48;8.67;8.00;3.00
27143;PMS1003;14672;50.250;8.312;2023-03-14T00:44:14;6.67;6.67;1.00
27143;PMS1003;14672;50.250;8.312;2023-03-14T00:46:40;9.33;9.33;3.00
27143;PMS1003;14672;50.250;8.312;2023-03-14T00:49:06;8.67;8.00;3.00
27143;PMS1003;14672;50.250;8.312;2023-03-14T00:51:32;10.67;8.67;1.00
27143;PMS1003;14672;50.250;8.312;2023-03-14T00:53:59;12.25;11.00;3.00
27143;PMS1003;14672;50.250;8.312;2023-03-14T00:56:25;11.00;10.00;3.00
27143;PMS1003;14672;50.250;8.312;2023-03-14T00:58:55;11.75;11.75;4.50
27143;PMS1003;14672;50.250;8.312;2023-03-14T01:01:21;11.25;11.00;3.00
27143;PMS1003;14672;50.250;8.312;2023-03-14T01:03:51;13.75;13.00;5.00
27143;PMS1003;14672;50.250;8.312;2023-03-14T01:06:28;13.50;11.00;3.00
27143;PMS1003;14672;50.250;8.312;2023-03-14T01:08:55;10.75;9.75;3.00
27143;PMS1003;14672;50.250;8.312;2023-03-14T01:11:23;10.00;8.00;3.00
27143;PMS1003;14672;50.250;8.312;2023-03-14T01:13:53;10.00;8.00;3.00
27143;PMS1003;14672;50.250;8.312;2023-03-14T01:16:20;8.50;8.50;3.00
27143;PMS1003;14672;50.250;8.312;2023-03-14T01:18:47;10.00;9.50;2.00
27143;PMS1003;14672;50.250;8.312;2023-03-14T01:21:21;8.00;8.00;3.00
27143;PMS1003;14672;50.250;8.312;2023-03-14T01:23:51;11.25;10.25;3.00
27143;PMS1003;14672;50.250;8.312;2023-03-14T01:26:20;8.00;8.00;1.00
27143;PMS1003;14672;50.250;8.312;2023-03-14T01:28:49;8.00;8.00;3.00
27143;PMS1003;14672;50.250;8.312;2023-03-14T01:31:17;9.50;9.50;1.00
27143;PMS1003;14672;50.250;8.312;2023-03-14T01:33:43;14.00;11.00;2.50
27143;PMS1003;14672;50.250;8.312;2023-03-14T01:36:10;9.00;9.00;3.00
27143;PMS1003;14672;50.250;8.312;2023-03-14T01:38:37;15.50;11.75;3.00
27143;PMS1003;14672;50.250;8.312;2023-03-14T01:41:05;13.25;13.25;2.50
27143;PMS1003;14672;50.250;8.312;2023-03-14T01:43:34;11.75;10.25;3.50
27143;PMS1003;14672;50.250;8.312;2023-03-14T01:51:09;12.25;9.75;3.00
27143;PMS1003;14672;50.250;8.312;2023-03-14T01:53:42;8.00;8.00;1.50
27143;PMS1003;14672;50.250;8.312;2023-03-14T01:56:09;9.50;9.50;2.00
27143;PMS1003;14672;50.250;8.312;2023-03-14T01:58:41;8.00;8.00;1.00
27143;PMS1003;14672;50.250;8.312;2023-03-14T02:01:14;10.00;8.50;1.50
27143;PMS1003;14672;50.250;8.312;2023-03-14T02:03:49;9.00;9.00;3.00
27143;PMS1003;14672;50.250;8.312;2023-03-14T02:06:21;8.00;7.25;3.00
27143;PMS1003;14672;50.250;8.312;2023-03-14T02:08:56;11.50;11.50;5.00
27143;PMS1003;14672;50.250;8.312;2023-03-14T02:11:26;11.75;9.50;2.50
27143;PMS1003;14672;50.250;8.312;2023-03-14T02:13:55;9.75;9.75;3.00
27143;PMS1003;14672;50.250;8.312;2023-03-14T02:16:23;16.25;13.00;3.00
27143;PMS1003;14672;50.250;8.312;2023-03-14T02:18:49;14.25;11.00;3.00
27143;PMS1003;14672;50.250;8.312;2023-03-14T02:24:17;14.25;11.25;1.00
27143;PMS1003;14672;50.250;8.312;2023-03-14T02:27:08;12.00;10.00;3.00
27143;PMS1003;14672;50.250;8.312;2023-03-14T02:29:44;11.75;10.00;3.00
27143;PMS1003;14672;50.250;8.312;2023-03-14T02:32:24;9.50;9.50;3.00
27143;PMS1003;14672;50.250;8.312;2023-03-14T02:34:54;13.00;11.75;3.00
27143;PMS1003;14672;50.250;8.312;2023-03-14T02:37:24;8.00;8.00;3.00
27143;PMS1003;14672;50.250;8.312;2023-03-14T02:40:00;7.75;6.75;1.00
27143;PMS1003;14672;50.250;8.312;2023-03-14T02:42:26;8.00;6.00;1.00
27143;PMS1003;14672;50.250;8.312;2023-03-14T02:45:01;6.00;6.00;1.00
27143;PMS1003;14672;50.250;8.312;2023-03-14T02:47:43;9.50;9.50;3.00
27143;PMS1003;14672;50.250;8.312;2023-03-14T02:50:15;8.00;8.00;1.00
27143;PMS1003;14672;50.250;8.312;2023-03-14T02:52:46;11.75;11.00;3.00
27143;PMS1003;14672;50.250;8.312;2023-03-14T02:55:12;10.00;9.33;3.00
27143;PMS1003;14672;50.250;8.312;2023-03-14T02:57:38;7.25;7.25;1.00
27143;PMS1003;14672;50.250;8.312;2023-03-14T03:00:04;6.33;6.33;2.33
27143;PMS1003;14672;50.250;8.312;2023-03-14T03:02:31;5.25;5.00;1.00
27143;PMS1003;14672;50.250;8.312;2023-03-14T03:04:57;9.50;8.50;1.00
27143;PMS1003;14672;50.250;8.312;2023-03-14T03:07:23;8.00;8.00;1.00
27143;PMS1003;14672;50.250;8.312;2023-03-14T03:09:50;7.75;7.25;1.50
27143;PMS1003;14672;50.250;8.312;2023-03-14T03:12:16;8.00;6.00;1.00
27143;PMS1003;14672;50.250;8.312;2023-03-14T03:14:42;10.00;8.00;2.33
27143;PMS1003;14672;50.250;8.312;2023-03-14T03:17:07;8.00;8.00;1.00
27143;PMS1003;14672;50.250;8.312;2023-03-14T03:19:34;13.33;12.00;3.00
27143;PMS1003;14672;50.250;8.312;2023-03-14T03:22:00;6.25;6.25;1.00
27143;PMS1003;14672;50.250;8.312;2023-03-14T03:24:26;8.00;7.25;1.00
27143;PMS1003;14672;50.250;8.312;2023-03-14T03:26:52;9.50;8.00;1.00
27143;PMS1003;14672;50.250;8.312;2023-03-14T03:29:18;8.50;8.50;0.75
27143;PMS1003;14672;50.250;8.312;2023-03-14T03:31:44;6.00;6.00;1.00
27143;PMS1003;14672;50.250;8.312;2023-03-14T03:34:11;7.00;7.00;1.00
27143;PMS1003;14672;50.250;8.312;2023-03-14T03:36:38;8.75;6.75;1.00
27143;PMS1003;14672;50.250;8.312;2023-03-14T03:39:04;10.00;10.00;1.00
27143;PMS1003;14672;50.250;8.312;2023-03-14T03:41:30;6.67;6.67;1.00
27143;PMS1003;14672;50.250;8.312;2023-03-14T03:43:56;6.00;6.00;1.00
27143;PMS1003;14672;50.250;8.312;2023-03-14T03:46:22;5.00;5.00;1.00
27143;PMS1003;14672;50.250;8.312;2023-03-14T03:48:48;8.00;6.75;1.00
27143;PMS1003;14672;50.250;8.312;2023-03-14T03:51:24;9.50;8.00;1.00
27143;PMS1003;14672;50.250;8.312;2023-03-14T03:53:51;5.00;5.00;1.00
27143;PMS1003;14672;50.250;8.312;2023-03-14T03:56:16;8.00;8.00;1.00
27143;PMS1003;14672;50.250;8.312;2023-03-14T03:58:43;6.75;6.25;0.75
27143;PMS1003;14672;50.250;8.312;2023-03-14T04:01:09;8.00;6.00;0.00
27143;PMS1003;14672;50.250;8.312;2023-03-14T04:03:36;8.00;7.75;0.75
27143;PMS1003;14672;50.250;8.312;2023-03-14T04:06:07;7.00;5.50;0.50
27143;PMS1003;14672;50.250;8.312;2023-03-14T04:08:36;5.00;5.00;0.00
27143;PMS1003;14672;50.250;8.312;2023-03-14T04:11:02;9.00;7.50;1.00
27143;PMS1003;14672;50.250;8.312;2023-03-14T04:13:29;12.25;10.00;1.00
27143;PMS1003;14672;50.250;8.312;2023-03-14T04:15:55;10.00;8.00;1.00
27143;PMS1003;14672;50.250;8.312;2023-03-14T04:18:22;8.50;8.50;1.00
27143;PMS1003;14672;50.250;8.312;2023-03-14T04:20:54;9.50;9.50;1.00
27143;PMS1003;14672;50.250;8.312;2023-03-14T04:23:23;6.00;6.00;1.50
27143;PMS1003;14672;50.250;8.312;2023-03-14T04:25:51;6.00;6.00;1.00
27143;PMS1003;14672;50.250;8.312;2023-03-14T04:28:18;6.00;6.00;1.00
27143;PMS1003;14672;50.250;8.312;2023-03-14T04:30:44;6.25;5.75;1.00
27143;PMS1003;14672;50.250;8.312;2023-03-14T04:33:10;8.00;7.67;1.00
27143;PMS1003;14672;50.250;8.312;2023-03-14T04:35:37;6.00;6.00;1.00
27143;PMS1003;14672;50.250;8.312;2023-03-14T04:38:03;10.00;6.00;0.00
27143;PMS1003;14672;50.250;8.312;2023-03-14T04:40:29;6.00;6.00;1.00
27143;PMS1003;14672;50.250;8.312;2023-03-14T04:42:55;6.67;6.00;1.00
27143;PMS1003;14672;50.250;8.312;2023-03-14T04:45:21;7.00;5.00;0.00
27143;PMS1003;14672;50.250;8.312;2023-03-14T04:47:46;5.33;5.33;0.33
27143;PMS1003;14672;50.250;8.312;2023-03-14T04:50:12;5.00;5.00;0.00
27143;PMS1003;14672;50.250;8.312;2023-03-14T04:52:38;8.00;5.00;1.00
27143;PMS1003;14672;50.250;8.312;2023-03-14T04:55:04;9.33;9.33;1.00
27143;PMS1003;14672;50.250;8.312;2023-03-14T04:57:30;6.25;6.25;1.00
27143;PMS1003;14672;50.250;8.312;2023-03-14T04:59:56;8.00;8.00;1.67
27143;PMS1003;14672;50.250;8.312;2023-03-14T05:02:21;10.00;10.00;3.00
27143;PMS1003;14672;50.250;8.312;2023-03-14T05:04:47;7.33;7.33;1.00
27143;PMS1003;14672;50.250;8.312;2023-03-14T05:07:13;6.00;6.00;1.00
27143;PMS1003;14672;50.250;8.312;2023-03-14T05:09:39;6.00;6.00;1.00
27143;PMS1003;14672;50.250;8.312;2023-03-14T05:12:05;5.00;5.00;1.00
27143;PMS1003;14672;50.250;8.312;2023-03-14T05:14:31;6.00;6.00;1.00
27143;PMS1003;14672;50.250;8.312;2023-03-14T05:16:57;8.67;8.67;2.33
27143;PMS1003;14672;50.250;8.312;2023-03-14T05:19:22;8.00;8.00;1.00
27143;PMS1003;14672;50.250;8.312;2023-03-14T05:21:48;12.33;8.67;1.00
27143;PMS1003;14672;50.250;8.312;2023-03-14T05:24:14;7.00;6.33;1.00
27143;PMS1003;14672;50.250;8.312;2023-03-14T05:26:40;6.00;5.33;0.67
27143;PMS1003;14672;50.250;8.312;2023-03-14T05:29:05;7.33;5.67;0.33
27143;PMS1003;14672;50.250;8.312;2023-03-14T05:31:31;5.00;5.00;0.00
27143;PMS1003;14672;50.250;8.312;2023-03-14T05:33:57;6.33;6.00;1.00
27143;PMS1003;14672;50.250;8.312;2023-03-14T05:36:23;6.33;6.33;1.00
27143;PMS1003;14672;50.250;8.312;2023-03-14T05:38:48;5.00;5.00;1.00
27143;PMS1003;14672;50.250;8.312;2023-03-14T05:41:14;10.00;10.00;1.00
27143;PMS1003;14672;50.250;8.312;2023-03-14T05:43:40;6.00;6.00;1.00
27143;PMS1003;14672;50.250;8.312;2023-03-14T05:46:06;5.00;5.00;0.00
27143;PMS1003;14672;50.250;8.312;2023-03-14T05:48:31;5.33;5.33;0.00
27143;PMS1003;14672;50.250;8.312;2023-03-14T05:50:57;6.00;6.00;1.00
27143;PMS1003;14672;50.250;8.312;2023-03-14T05:53:24;5.25;5.00;0.00
27143;PMS1003;14672;50.250;8.312;2023-03-14T05:55:53;7.50;7.00;0.75
27143;PMS1003;14672;50.250;8.312;2023-03-14T05:58:20;5.00;5.00;0.50
27143;PMS1003;14672;50.250;8.312;2023-03-14T06:00:46;5.75;5.00;0.25
27143;PMS1003;14672;50.250;8.312;2023-03-14T06:03:13;5.75;5.75;0.75
27143;PMS1003;14672;50.250;8.312;2023-03-14T06:05:39;5.25;5.00;1.00
27143;PMS1003;14672;50.250;8.312;2023-03-14T06:08:04;5.00;5.00;0.00
27143;PMS1003;14672;50.250;8.312;2023-03-14T06:10:30;6.00;5.00;0.00
27143;PMS1003;14672;50.250;8.312;2023-03-14T06:12:56;3.67;3.67;0.00
27143;PMS1003;14672;50.250;8.312;2023-03-14T06:15:22;5.00;5.00;0.00
27143;PMS1003;14672;50.250;8.312;2023-03-14T06:17:47;7.33;7.33;1.00
27143;PMS1003;14672;50.250;8.312;2023-03-14T06:20:13;5.00;5.00;0.00
27143;PMS1003;14672;50.250;8.312;2023-03-14T06:22:39;8.00;6.00;0.00
27143;PMS1003;14672;50.250;8.312;2023-03-14T06:25:05;4.33;4.33;0.00
27143;PMS1003;14672;50.250;8.312;2023-03-14T06:27:32;5.75;5.75;1.00
27143;PMS1003;14672;50.250;8.312;2023-03-14T06:29:58;7.50;6.25;0.00
27143;PMS1003;14672;50.250;8.312;2023-03-14T06:32:24;5.00;5.00;0.67
27143;PMS1003;14672;50.250;8.312;2023-03-14T06:34:50;4.33;4.33;0.00
27143;PMS1003;14672;50.250;8.312;2023-03-14T06:37:16;5.00;5.00;0.67
27143;PMS1003;14672;50.250;8.312;2023-03-14T06:39:41;5.00;5.00;0.00
27143;PMS1003;14672;50.250;8.312;2023-03-14T06:42:09;6.75;5.75;0.25
27143;PMS1003;14672;50.250;8.312;2023-03-14T06:44:35;5.00;5.00;1.00
27143;PMS1003;14672;50.250;8.312;2023-03-14T06:47:01;3.67;3.67;0.00
27143;PMS1003;14672;50.250;8.312;2023-03-14T06:49:27;3.00;3.00;0.00
27143;PMS1003;14672;50.250;8.312;2023-03-14T06:51:53;6.00;5.00;0.00
27143;PMS1003;14672;50.250;8.312;2023-03-14T06:54:19;3.67;3.67;0.00
27143;PMS1003;14672;50.250;8.312;2023-03-14T06:56:44;5.00;5.00;0.00
27143;PMS1003;14672;50.250;8.312;2023-03-14T06:59:10;5.00;5.00;0.00
27143;PMS1003;14672;50.250;8.312;2023-03-14T07:01:36;6.00;6.00;0.00
27143;PMS1003;14672;50.250;8.312;2023-03-14T07:04:02;5.00;5.00;0.00
27143;PMS1003;14672;50.250;8.312;2023-03-14T07:06:28;5.33;5.33;1.00
27143;PMS1003;14672;50.250;8.312;2023-03-14T07:08:56;5.00;5.00;0.00
27143;PMS1003;14672;50.250;8.312;2023-03-14T07:11:22;3.67;3.67;0.00
27143;PMS1003;14672;50.250;8.312;2023-03-14T07:13:49;5.00;5.00;0.00
27143;PMS1003;14672;50.250;8.312;2023-03-14T07:16:14;5.00;5.00;0.00
27143;PMS1003;14672;50.250;8.312;2023-03-14T07:18:41;5.00;5.00;0.00
27143;PMS1003;14672;50.250;8.312;2023-03-14T07:21:07;5.00;5.00;0.00
27143;PMS1003;14672;50.250;8.312;2023-03-14T07:23:37;5.00;5.00;0.00
27143;PMS1003;14672;50.250;8.312;2023-03-14T07:26:04;5.00;5.00;0.50
27143;PMS1003;14672;50.250;8.312;2023-03-14T07:28:30;5.75;5.25;0.00
27143;PMS1003;14672;50.250;8.312;2023-03-14T07:30:55;5.00;5.00;1.00
27143;PMS1003;14672;50.250;8.312;2023-03-14T07:33:21;7.75;6.00;0.25
27143;PMS1003;14672;50.250;8.312;2023-03-14T07:35:48;6.00;5.00;0.00
27143;PMS1003;14672;50.250;8.312;2023-03-14T07:38:14;5.00;5.00;0.00
27143;PMS1003;14672;50.250;8.312;2023-03-14T07:40:41;5.00;5.00;0.00
27143;PMS1003;14672;50.250;8.312;2023-03-14T07:43:07;5.00;5.00;0.00
27143;PMS1003;14672;50.250;8.312;2023-03-14T07:45:33;5.33;5.00;0.00
27143;PMS1003;14672;50.250;8.312;2023-03-14T07:47:58;5.00;5.00;0.00
27143;PMS1003;14672;50.250;8.312;2023-03-14T07:50:25;5.00;5.00;0.00
27143;PMS1003;14672;50.250;8.312;2023-03-14T07:52:51;4.50;4.50;0.00
27143;PMS1003;14672;50.250;8.312;2023-03-14T07:55:17;4.33;4.33;0.00
27143;PMS1003;14672;50.250;8.312;2023-03-14T07:57:43;5.00;5.00;0.00
27143;PMS1003;14672;50.250;8.312;2023-03-14T08:00:09;5.00;5.00;0.00
27143;PMS1003;14672;50.250;8.312;2023-03-14T08:02:36;5.75;5.75;0.00
27143;PMS1003;14672;50.250;8.312;2023-03-14T08:05:02;5.00;5.00;0.00
27143;PMS1003;14672;50.250;8.312;2023-03-14T08:07:29;4.00;4.00;0.00
27143;PMS1003;14672;50.250;8.312;2023-03-14T08:09:54;4.33;4.33;0.00
27143;PMS1003;14672;50.250;8.312;2023-03-14T08:12:20;5.00;5.00;0.00
27143;PMS1003;14672;50.250;8.312;2023-03-14T08:14:46;5.00;5.00;0.00
27143;PMS1003;14672;50.250;8.312;2023-03-14T08:17:11;5.00;4.33;0.00
27143;PMS1003;14672;50.250;8.312;2023-03-14T08:19:37;5.00;5.00;0.00
27143;PMS1003;14672;50.250;8.312;2023-03-14T08:22:03;3.67;3.67;0.00
27143;PMS1003;14672;50.250;8.312;2023-03-14T08:24:29;3.00;3.00;0.00
27143;PMS1003;14672;50.250;8.312;2023-03-14T08:26:56;5.00;5.00;0.00
27143;PMS1003;14672;50.250;8.312;2023-03-14T08:29:21;5.00;5.00;0.00
27143;PMS1003;14672;50.250;8.312;2023-03-14T08:31:47;3.00;3.00;0.00
27143;PMS1003;14672;50.250;8.312;2023-03-14T08:34:14;5.00;5.00;0.25
27143;PMS1003;14672;50.250;8.312;2023-03-14T08:36:40;5.00;5.00;0.00
27143;PMS1003;14672;50.250;8.312;2023-03-14T08:39:07;5.00;5.00;0.25
27143;PMS1003;14672;50.250;8.312;2023-03-14T08:41:33;5.50;5.50;1.00
27143;PMS1003;14672;50.250;8.312;2023-03-14T08:44:09;5.75;5.00;0.00
27143;PMS1003;14672;50.250;8.312;2023-03-14T08:46:39;5.00;5.00;0.00
27143;PMS1003;14672;50.250;8.312;2023-03-14T08:49:04;5.00;5.00;0.00
27143;PMS1003;14672;50.250;8.312;2023-03-14T08:51:30;5.00;5.00;0.00
27143;PMS1003;14672;50.250;8.312;2023-03-14T08:53:56;5.00;5.00;0.00
27143;PMS1003;14672;50.250;8.312;2023-03-14T08:56:22;6.00;6.00;0.67
27143;PMS1003;14672;50.250;8.312;2023-03-14T08:58:47;5.33;5.33;0.00
27143;PMS1003;14672;50.250;8.312;2023-03-14T09:01:13;5.00;5.00;0.00
27143;PMS1003;14672;50.250;8.312;2023-03-14T09:03:39;5.00;4.33;0.00
27143;PMS1003;14672;50.250;8.312;2023-03-14T09:06:06;3.00;3.00;0.00
27143;PMS1003;14672;50.250;8.312;2023-03-14T09:08:35;5.00;5.00;0.00
27143;PMS1003;14672;50.250;8.312;2023-03-14T09:11:01;3.00;3.00;0.00
27143;PMS1003;14672;50.250;8.312;2023-03-14T09:13:27;5.25;5.25;0.00
27143;PMS1003;14672;50.250;8.312;2023-03-14T09:15:53;5.00;5.00;0.00
27143;PMS1003;14672;50.250;8.312;2023-03-14T09:18:21;5.25;4.50;0.00
27143;PMS1003;14672;50.250;8.312;2023-03-14T09:20:47;4.00;3.00;0.00
27143;PMS1003;14672;50.250;8.312;2023-03-14T09:23:14;8.00;8.00;1.00
27143;PMS1003;14672;50.250;8.312;2023-03-14T09:25:40;5.00;5.00;0.00
27143;PMS1003;14672;50.250;8.312;2023-03-14T09:28:06;3.33;3.33;0.00
27143;PMS1003;14672;50.250;8.312;2023-03-14T09:30:32;6.00;6.00;0.00
27143;PMS1003;14672;50.250;8.312;2023-03-14T09:32:58;4.75;4.75;0.00
27143;PMS1003;14672;50.250;8.312;2023-03-14T09:35:24;5.00;5.00;0.00
27143;PMS1003;14672;50.250;8.312;2023-03-14T09:37:51;8.00;6.00;0.00
27143;PMS1003;14672;50.250;8.312;2023-03-14T09:40:17;6.00;6.00;0.00
27143;PMS1003;14672;50.250;8.312;2023-03-14T09:42:45;4.75;4.75;0.00
27143;PMS1003;14672;50.250;8.312;2023-03-14T09:45:18;5.50;5.50;0.00
27143;PMS1003;14672;50.250;8.312;2023-03-14T09:47:54;5.25;5.00;0.00
27143;PMS1003;14672;50.250;8.312;2023-03-14T09:50:22;3.00;3.00;0.00
27143;PMS1003;14672;50.250;8.312;2023-03-14T09:52:51;4.75;4.75;0.00
27143;PMS1003;14672;50.250;8.312;2023-03-14T09:55:24;6.00;6.00;1.00
27143;PMS1003;14672;50.250;8.312;2023-03-14T09:57:52;4.75;4.75;0.00
27143;PMS1003;14672;50.250;8.312;2023-03-14T10:00:29;3.00;3.00;0.00
27143;PMS1003;14672;50.250;8.312;2023-03-14T10:03:00;4.25;4.25;0.00
27143;PMS1003;14672;50.250;8.312;2023-03-14T10:05:39;5.25;5.25;0.00
27143;PMS1003;14672;50.250;8.312;2023-03-14T10:08:09;8.00;6.00;0.00
27143;PMS1003;14672;50.250;8.312;2023-03-14T10:10:36;5.50;5.50;1.00
27143;PMS1003;14672;50.250;8.312;2023-03-14T10:13:12;3.00;3.00;0.00
27143;PMS1003;14672;50.250;8.312;2023-03-14T10:16:08;3.00;3.00;0.00
27143;PMS1003;14672;50.250;8.312;2023-03-14T10:18:33;3.00;3.00;0.00
27143;PMS1003;14672;50.250;8.312;2023-03-14T10:21:04;5.25;5.25;0.50
27143;PMS1003;14672;50.250;8.312;2023-03-14T10:24:07;4.50;4.50;0.25
27143;PMS1003;14672;50.250;8.312;2023-03-14T10:26:53;5.00;5.00;0.00
27143;PMS1003;14672;50.250;8.312;2023-03-14T10:29:23;3.00;3.00;0.00
27143;PMS1003;14672;50.250;8.312;2023-03-14T10:31:59;5.00;3.00;0.00
27143;PMS1003;14672;50.250;8.312;2023-03-14T10:34:28;3.50;3.50;0.00
27143;PMS1003;14672;50.250;8.312;2023-03-14T10:39:55;5.00;5.00;0.00
27143;PMS1003;14672;50.250;8.312;2023-03-14T10:42:33;8.00;8.00;1.00
27143;PMS1003;14672;50.250;8.312;2023-03-14T10:45:16;4.75;4.75;0.00
27143;PMS1003;14672;50.250;8.312;2023-03-14T10:50:47;6.00;6.00;3.00
27143;PMS1003;14672;50.250;8.312;2023-03-14T10:53:19;5.25;5.25;0.00
27143;PMS1003;14672;50.250;8.312;2023-03-14T10:55:45;5.00;5.00;0.00
27143;PMS1003;14672;50.250;8.312;2023-03-14T10:58:27;6.00;6.00;0.33
27143;PMS1003;14672;50.250;8.312;2023-03-14T11:07:11;5.75;5.00;1.00
27143;PMS1003;14672;50.250;8.312;2023-03-14T11:26:37;5.75;5.75;0.00
27143;PMS1003;14672;50.250;8.312;2023-03-14T11:29:39;5.00;5.00;0.00
27143;PMS1003;14672;50.250;8.312;2023-03-14T11:32:14;5.25;5.25;0.00
27143;PMS1003;14672;50.250;8.312;2023-03-14T11:38:16;3.00;3.00;0.00
27143;PMS1003;14672;50.250;8.312;2023-03-14T11:41:30;5.00;5.00;0.00
27143;PMS1003;14672;50.250;8.312;2023-03-14T11:49:50;3.00;3.00;0.00
27143;PMS1003;14672;50.250;8.312;2023-03-14T11:52:34;3.00;3.00;0.00
27143;PMS1003;14672;50.250;8.312;2023-03-14T11:55:28;3.00;3.00;0.00
27143;PMS1003;14672;50.250;8.312;2023-03-14T11:58:16;3.00;3.00;0.00
27143;PMS1003;14672;50.250;8.312;2023-03-14T12:00:50;3.00;3.00;0.00
27143;PMS1003;14672;50.250;8.312;2023-03-14T12:09:11;5.00;3.00;0.00
27143;PMS1003;14672;50.250;8.312;2023-03-14T12:11:40;3.00;3.00;0.00
27143;PMS1003;14672;50.250;8.312;2023-03-14T12:14:35;3.00;3.00;0.00
27143;PMS1003;14672;50.250;8.312;2023-03-14T12:19:39;3.00;3.00;0.00
27143;PMS1003;14672;50.250;8.312;2023-03-14T12:22:23;4.00;4.00;0.00
27143;PMS1003;14672;50.250;8.312;2023-03-14T12:25:02;4.50;4.50;0.00
27143;PMS1003;14672;50.250;8.312;2023-03-14T12:30:39;3.00;3.00;0.00
27143;PMS1003;14672;50.250;8.312;2023-03-14T12:35:46;5.00;5.00;0.00
27143;PMS1003;14672;50.250;8.312;2023-03-14T12:43:48;5.00;5.00;0.00
27143;PMS1003;14672;50.250;8.312;2023-03-14T12:51:34;5.00;5.00;0.00
27143;PMS1003;14672;50.250;8.312;2023-03-14T13:00:50;6.75;5.00;0.50
27143;PMS1003;14672;50.250;8.312;2023-03-14T13:05:51;6.50;5.00;0.00
27143;PMS1003;14672;50.250;8.312;2023-03-14T13:08:32;5.00;5.00;1.00
27143;PMS1003;14672;50.250;8.312;2023-03-14T13:11:16;5.50;5.00;0.00
27143;PMS1003;14672;50.250;8.312;2023-03-14T13:13:45;8.00;6.25;1.00
27143;PMS1003;14672;50.250;8.312;2023-03-14T13:16:18;7.00;5.50;0.50
27143;PMS1003;14672;50.250;8.312;2023-03-14T13:18:46;5.00;5.00;1.00
27143;PMS1003;14672;50.250;8.312;2023-03-14T13:21:20;5.00;5.00;0.25
27143;PMS1003;14672;50.250;8.312;2023-03-14T13:26:34;5.75;5.75;0.50
27143;PMS1003;14672;50.250;8.312;2023-03-14T13:29:17;3.50;3.50;0.00
27143;PMS1003;14672;50.250;8.312;2023-03-14T13:31:54;3.00;3.00;0.00
27143;PMS1003;14672;50.250;8.312;2023-03-14T13:34:34;3.00;3.00;0.00
27143;PMS1003;14672;50.250;8.312;2023-03-14T13:37:00;5.00;5.00;0.00
27143;PMS1003;14672;50.250;8.312;2023-03-14T13:39:26;3.00;3.00;0.00
27143;PMS1003;14672;50.250;8.312;2023-03-14T13:42:00;5.00;5.00;0.25
27143;PMS1003;14672;50.250;8.312;2023-03-14T13:44:33;3.00;3.00;0.00
27143;PMS1003;14672;50.250;8.312;2023-03-14T13:47:05;4.00;4.00;0.00
27143;PMS1003;14672;50.250;8.312;2023-03-14T13:49:39;3.00;3.00;0.00
27143;PMS1003;14672;50.250;8.312;2023-03-14T13:52:21;3.50;3.50;0.00
27143;PMS1003;14672;50.250;8.312;2023-03-14T13:55:01;3.00;3.00;0.00
27143;PMS1003;14672;50.250;8.312;2023-03-14T13:57:51;5.00;3.50;0.00
27143;PMS1003;14672;50.250;8.312;2023-03-14T14:00:22;4.00;4.00;0.00
27143;PMS1003;14672;50.250;8.312;2023-03-14T14:02:55;3.00;3.00;0.00
27143;PMS1003;14672;50.250;8.312;2023-03-14T14:05:27;3.00;3.00;0.00
27143;PMS1003;14672;50.250;8.312;2023-03-14T14:07:56;4.50;4.50;0.00
27143;PMS1003;14672;50.250;8.312;2023-03-14T14:10:22;3.00;3.00;0.00
27143;PMS1003;14672;50.250;8.312;2023-03-14T14:12:49;3.00;3.00;0.00
27143;PMS1003;14672;50.250;8.312;2023-03-14T14:15:28;3.00;3.00;0.00
27143;PMS1003;14672;50.250;8.312;2023-03-14T14:18:06;3.00;3.00;0.00
27143;PMS1003;14672;50.250;8.312;2023-03-14T14:20:38;3.00;3.00;0.00
27143;PMS1003;14672;50.250;8.312;2023-03-14T14:23:12;3.00;3.00;0.00
27143;PMS1003;14672;50.250;8.312;2023-03-14T14:25:51;3.00;3.00;0.00
27143;PMS1003;14672;50.250;8.312;2023-03-14T14:28:23;3.50;3.50;0.00
27143;PMS1003;14672;50.250;8.312;2023-03-14T14:31:00;10.00;8.75;3.00
27143;PMS1003;14672;50.250;8.312;2023-03-14T14:33:30;9.50;8.75;2.00
27143;PMS1003;14672;50.250;8.312;2023-03-14T14:36:40;10.25;9.50;3.00
27143;PMS1003;14672;50.250;8.312;2023-03-14T14:41:55;12.75;11.00;4.50
27143;PMS1003;14672;50.250;8.312;2023-03-14T14:44:32;25.75;23.25;13.25
27143;PMS1003;14672;50.250;8.312;2023-03-14T14:47:01;97.60;77.00;46.40
27143;PMS1003;14672;50.250;8.312;2023-03-14T14:49:29;33.50;31.00;14.75
27143;PMS1003;14672;50.250;8.312;2023-03-14T14:52:04;30.75;28.25;14.00
27143;PMS1003;14672;50.250;8.312;2023-03-14T14:54:46;26.00;23.00;12.00
27143;PMS1003;14672;50.250;8.312;2023-03-14T14:57:19;13.75;12.00;5.00
27143;PMS1003;14672;50.250;8.312;2023-03-14T15:00:05;8.75;7.25;1.00
27143;PMS1003;14672;50.250;8.312;2023-03-14T15:02:45;8.50;8.50;2.50
27143;PMS1003;14672;50.250;8.312;2023-03-14T15:05:14;8.50;7.50;0.00
27143;PMS1003;14672;50.250;8.312;2023-03-14T15:07:42;8.25;8.25;1.00
27143;PMS1003;14672;50.250;8.312;2023-03-14T15:10:10;7.00;7.00;1.00
27143;PMS1003;14672;50.250;8.312;2023-03-14T15:12:39;5.00;5.00;1.00
27143;PMS1003;14672;50.250;8.312;2023-03-14T15:15:05;5.00;5.00;0.75
27143;PMS1003;14672;50.250;8.312;2023-03-14T15:17:32;7.00;7.00;1.00
27143;PMS1003;14672;50.250;8.312;2023-03-14T15:19:58;6.33;5.00;0.00
27143;PMS1003;14672;50.250;8.312;2023-03-14T15:22:24;7.00;7.00;0.00
27143;PMS1003;14672;50.250;8.312;2023-03-14T15:24:50;5.00;5.00;0.00
27143;PMS1003;14672;50.250;8.312;2023-03-14T15:27:17;5.00;5.00;1.00
27143;PMS1003;14672;50.250;8.312;2023-03-14T15:29:43;51.00;46.25;18.00
27143;PMS1003;14672;50.250;8.312;2023-03-14T15:32:11;103.20;77.20;41.40
27143;PMS1003;14672;50.250;8.312;2023-03-14T15:34:39;80.25;57.25;27.00
27143;PMS1003;14672;50.250;8.312;2023-03-14T15:37:08;38.50;31.25;14.00
27143;PMS1003;14672;50.250;8.312;2023-03-14T15:39:41;9.50;7.00;1.00
27143;PMS1003;14672;50.250;8.312;2023-03-14T15:42:08;50.50;41.25;18.00
27143;PMS1003;14672;50.250;8.312;2023-03-14T15:44:34;32.50;30.00;14.00
27143;PMS1003;14672;50.250;8.312;2023-03-14T15:47:00;51.00;41.00;19.75
27143;PMS1003;14672;50.250;8.312;2023-03-14T15:49:27;7.00;7.00;0.00
27143;PMS1003;14672;50.250;8.312;2023-03-14T15:51:53;7.00;5.00;0.00
27143;PMS1003;14672;50.250;8.312;2023-03-14T15:54:19;6.33;5.00;0.00
27143;PMS1003;14672;50.250;8.312;2023-03-14T15:56:45;3.00;3.00;0.00